sensor_id;sensor_type;location;lat;lon;timestamp;P1;durP1;ratioP1;P2;durP2;ratioP2
21771;SDS011;11047;47.904;8.110;2024-02-26T00:02:42;1.13;;;0.77;;
21771;SDS011;11047;47.904;8.110;2024-02-26T00:05:09;1.13;;;0.60;;
21771;SDS011;11047;47.904;8.110;2024-02-26T00:07:36;0.40;;;0.40;;
21771;SDS011;11047;47.904;8.110;2024-02-26T00:10:04;0.45;;;0.45;;
21771;SDS011;11047;47.904;8.110;2024-02-26T00:12:32;0.57;;;0.50;;
21771;SDS011;11047;47.904;8.110;2024-02-26T00:14:59;2.05;;;0.95;;
21771;SDS011;11047;47.904;8.110;2024-02-26T00:17:26;0.52;;;0.52;;
21771;SDS011;11047;47.904;8.110;2024-02-26T00:19:54;1.40;;;0.93;;
21771;SDS011;11047;47.904;8.110;2024-02-26T00:22:21;0.88;;;0.77;;
21771;SDS011;11047;47.904;8.110;2024-02-26T00:24:48;0.60;;;0.50;;
21771;SDS011;11047;47.904;8.110;2024-02-26T00:27:15;0.30;;;0.30;;
21771;SDS011;11047;47.904;8.110;2024-02-26T00:29:42;2.72;;;1.60;;
21771;SDS011;11047;47.904;8.110;2024-02-26T00:32:09;1.25;;;0.60;;
21771;SDS011;11047;47.904;8.110;2024-02-26T00:34:36;0.60;;;0.32;;
21771;SDS011;11047;47.904;8.110;2024-02-26T00:37:04;0.30;;;0.30;;
21771;SDS011;11047;47.904;8.110;2024-02-26T00:39:31;1.65;;;1.17;;
21771;SDS011;11047;47.904;8.110;2024-02-26T00:41:58;1.10;;;1.02;;
21771;SDS011;11047;47.904;8.110;2024-02-26T00:44:25;0.60;;;0.55;;
21771;SDS011;11047;47.904;8.110;2024-02-26T00:46:52;2.53;;;1.70;;
21771;SDS011;11047;47.904;8.110;2024-02-26T00:49:19;0.43;;;0.30;;
21771;SDS011;11047;47.904;8.110;2024-02-26T00:51:46;0.40;;;0.40;;
21771;SDS011;11047;47.904;8.110;2024-02-26T00:54:14;0.30;;;0.30;;
21771;SDS011;11047;47.904;8.110;2024-02-26T00:56:41;3.55;;;1.73;;
21771;SDS011;11047;47.904;8.110;2024-02-26T00:59:08;0.95;;;0.60;;
21771;SDS011;11047;47.904;8.110;2024-02-26T01:01:35;0.75;;;0.70;;
21771;SDS011;11047;47.904;8.110;2024-02-26T01:04:02;0.30;;;0.30;;
21771;SDS011;11047;47.904;8.110;2024-02-26T01:06:29;0.30;;;0.30;;
21771;SDS011;11047;47.904;8.110;2024-02-26T01:08:56;0.35;;;0.35;;
21771;SDS011;11047;47.904;8.110;2024-02-26T01:11:24;1.38;;;1.15;;
21771;SDS011;11047;47.904;8.110;2024-02-26T01:13:52;0.38;;;0.30;;
21771;SDS011;11047;47.904;8.110;2024-02-26T01:16:21;0.77;;;0.52;;
21771;SDS011;11047;47.904;8.110;2024-02-26T01:18:48;2.05;;;1.08;;
21771;SDS011;11047;47.904;8.110;2024-02-26T01:21:15;2.17;;;0.50;;
21771;SDS011;11047;47.904;8.110;2024-02-26T01:23:42;0.47;;;0.47;;
21771;SDS011;11047;47.904;8.110;2024-02-26T01:26:09;0.57;;;0.57;;
21771;SDS011;11047;47.904;8.110;2024-02-26T01:28:38;0.50;;;0.50;;
21771;SDS011;11047;47.904;8.110;2024-02-26T01:31:05;0.95;;;0.40;;
21771;SDS011;11047;47.904;8.110;2024-02-26T01:33:33;0.70;;;0.40;;
21771;SDS011;11047;47.904;8.110;2024-02-26T01:36:00;0.30;;;0.30;;
21771;SDS011;11047;47.904;8.110;2024-02-26T01:38:27;1.52;;;1.17;;
21771;SDS011;11047;47.904;8.110;2024-02-26T01:40:54;0.50;;;0.50;;
21771;SDS011;11047;47.904;8.110;2024-02-26T01:43:21;1.10;;;0.80;;
21771;SDS011;11047;47.904;8.110;2024-02-26T01:45:50;2.80;;;0.93;;
21771;SDS011;11047;47.904;8.110;2024-02-26T01:48:17;0.55;;;0.30;;
21771;SDS011;11047;47.904;8.110;2024-02-26T01:50:44;0.30;;;0.30;;
21771;SDS011;11047;47.904;8.110;2024-02-26T01:53:11;0.32;;;0.32;;
21771;SDS011;11047;47.904;8.110;2024-02-26T01:55:39;0.38;;;0.38;;
21771;SDS011;11047;47.904;8.110;2024-02-26T01:58:06;0.22;;;0.22;;
21771;SDS011;11047;47.904;8.110;2024-02-26T02:00:33;0.50;;;0.50;;
21771;SDS011;11047;47.904;8.110;2024-02-26T02:03:02;0.30;;;0.30;;
21771;SDS011;11047;47.904;8.110;2024-02-26T02:05:30;0.30;;;0.30;;
21771;SDS011;11047;47.904;8.110;2024-02-26T02:07:57;0.73;;;0.47;;
21771;SDS011;11047;47.904;8.110;2024-02-26T02:10:25;0.32;;;0.30;;
21771;SDS011;11047;47.904;8.110;2024-02-26T02:12:53;0.73;;;0.73;;
21771;SDS011;11047;47.904;8.110;2024-02-26T02:15:20;0.47;;;0.47;;
21771;SDS011;11047;47.904;8.110;2024-02-26T02:17:47;0.38;;;0.38;;
21771;SDS011;11047;47.904;8.110;2024-02-26T02:20:16;0.30;;;0.30;;
21771;SDS011;11047;47.904;8.110;2024-02-26T02:22:45;0.40;;;0.40;;
21771;SDS011;11047;47.904;8.110;2024-02-26T02:25:13;1.55;;;1.23;;
21771;SDS011;11047;47.904;8.110;2024-02-26T02:27:40;0.95;;;0.60;;
21771;SDS011;11047;47.904;8.110;2024-02-26T02:30:09;1.30;;;0.50;;
21771;SDS011;11047;47.904;8.110;2024-02-26T02:32:37;0.88;;;0.80;;
21771;SDS011;11047;47.904;8.110;2024-02-26T02:35:07;1.13;;;0.47;;
21771;SDS011;11047;47.904;8.110;2024-02-26T02:37:34;0.65;;;0.60;;
21771;SDS011;11047;47.904;8.110;2024-02-26T02:40:04;0.47;;;0.47;;
21771;SDS011;11047;47.904;8.110;2024-02-26T02:42:31;0.52;;;0.40;;
21771;SDS011;11047;47.904;8.110;2024-02-26T02:44:58;0.57;;;0.43;;
21771;SDS011;11047;47.904;8.110;2024-02-26T02:47:25;0.57;;;0.57;;
21771;SDS011;11047;47.904;8.110;2024-02-26T02:49:52;0.50;;;0.50;;
21771;SDS011;11047;47.904;8.110;2024-02-26T02:52:19;1.63;;;0.40;;
21771;SDS011;11047;47.904;8.110;2024-02-26T02:54:46;0.75;;;0.75;;
21771;SDS011;11047;47.904;8.110;2024-02-26T02:57:14;0.32;;;0.32;;
21771;SDS011;11047;47.904;8.110;2024-02-26T02:59:41;0.40;;;0.40;;
21771;SDS011;11047;47.904;8.110;2024-02-26T03:02:08;1.02;;;0.40;;
21771;SDS011;11047;47.904;8.110;2024-02-26T03:04:35;0.40;;;0.40;;
21771;SDS011;11047;47.904;8.110;2024-02-26T03:07:02;0.35;;;0.35;;
21771;SDS011;11047;47.904;8.110;2024-02-26T03:09:29;0.57;;;0.50;;
21771;SDS011;11047;47.904;8.110;2024-02-26T03:11:56;0.80;;;0.40;;
21771;SDS011;11047;47.904;8.110;2024-02-26T03:14:25;1.02;;;0.80;;
21771;SDS011;11047;47.904;8.110;2024-02-26T03:16:53;2.30;;;0.93;;
21771;SDS011;11047;47.904;8.110;2024-02-26T03:19:20;1.95;;;0.40;;
21771;SDS011;11047;47.904;8.110;2024-02-26T03:21:47;1.00;;;0.63;;
21771;SDS011;11047;47.904;8.110;2024-02-26T03:24:14;0.30;;;0.30;;
21771;SDS011;11047;47.904;8.110;2024-02-26T03:26:41;0.50;;;0.50;;
21771;SDS011;11047;47.904;8.110;2024-02-26T03:29:08;0.77;;;0.50;;
21771;SDS011;11047;47.904;8.110;2024-02-26T03:31:36;0.32;;;0.32;;
21771;SDS011;11047;47.904;8.110;2024-02-26T03:34:03;1.02;;;0.75;;
21771;SDS011;11047;47.904;8.110;2024-02-26T03:36:30;0.52;;;0.50;;
21771;SDS011;11047;47.904;8.110;2024-02-26T03:38:57;0.47;;;0.43;;
21771;SDS011;11047;47.904;8.110;2024-02-26T03:41:25;1.50;;;0.32;;
21771;SDS011;11047;47.904;8.110;2024-02-26T03:43:51;0.32;;;0.30;;
21771;SDS011;11047;47.904;8.110;2024-02-26T03:46:18;0.35;;;0.35;;
21771;SDS011;11047;47.904;8.110;2024-02-26T03:48:47;0.40;;;0.40;;
21771;SDS011;11047;47.904;8.110;2024-02-26T03:51:14;2.22;;;0.50;;
21771;SDS011;11047;47.904;8.110;2024-02-26T03:53:41;0.50;;;0.50;;
21771;SDS011;11047;47.904;8.110;2024-02-26T03:56:08;0.40;;;0.40;;
21771;SDS011;11047;47.904;8.110;2024-02-26T03:58:37;0.50;;;0.50;;
21771;SDS011;11047;47.904;8.110;2024-02-26T04:01:04;0.70;;;0.65;;
21771;SDS011;11047;47.904;8.110;2024-02-26T04:03:33;0.50;;;0.50;;
21771;SDS011;11047;47.904;8.110;2024-02-26T04:06:02;0.52;;;0.50;;
21771;SDS011;11047;47.904;8.110;2024-02-26T04:08:29;0.77;;;0.40;;
21771;SDS011;11047;47.904;8.110;2024-02-26T04:10:56;2.22;;;0.50;;
21771;SDS011;11047;47.904;8.110;2024-02-26T04:13:23;1.08;;;0.60;;
21771;SDS011;11047;47.904;8.110;2024-02-26T04:15:49;0.70;;;0.50;;
21771;SDS011;11047;47.904;8.110;2024-02-26T04:18:16;0.95;;;0.50;;
21771;SDS011;11047;47.904;8.110;2024-02-26T04:20:43;0.40;;;0.40;;
21771;SDS011;11047;47.904;8.110;2024-02-26T04:23:12;0.50;;;0.50;;
21771;SDS011;11047;47.904;8.110;2024-02-26T04:25:39;0.47;;;0.47;;
21771;SDS011;11047;47.904;8.110;2024-02-26T04:28:05;0.40;;;0.40;;
21771;SDS011;11047;47.904;8.110;2024-02-26T04:30:32;0.52;;;0.40;;
21771;SDS011;11047;47.904;8.110;2024-02-26T04:32:59;0.30;;;0.30;;
21771;SDS011;11047;47.904;8.110;2024-02-26T04:35:26;0.40;;;0.40;;
21771;SDS011;11047;47.904;8.110;2024-02-26T04:37:53;1.17;;;0.47;;
21771;SDS011;11047;47.904;8.110;2024-02-26T04:40:22;0.50;;;0.50;;
21771;SDS011;11047;47.904;8.110;2024-02-26T04:42:49;0.63;;;0.45;;
21771;SDS011;11047;47.904;8.110;2024-02-26T04:45:15;0.43;;;0.43;;
21771;SDS011;11047;47.904;8.110;2024-02-26T04:47:42;0.60;;;0.60;;
21771;SDS011;11047;47.904;8.110;2024-02-26T04:50:09;1.55;;;1.00;;
21771;SDS011;11047;47.904;8.110;2024-02-26T04:52:36;0.57;;;0.57;;
21771;SDS011;11047;47.904;8.110;2024-02-26T04:55:03;0.40;;;0.40;;
21771;SDS011;11047;47.904;8.110;2024-02-26T04:57:32;1.42;;;0.98;;
21771;SDS011;11047;47.904;8.110;2024-02-26T04:59:59;0.32;;;0.32;;
21771;SDS011;11047;47.904;8.110;2024-02-26T05:02:26;0.50;;;0.50;;
21771;SDS011;11047;47.904;8.110;2024-02-26T05:04:53;0.30;;;0.30;;
21771;SDS011;11047;47.904;8.110;2024-02-26T05:10:06;0.40;;;0.40;;
21771;SDS011;11047;47.904;8.110;2024-02-26T05:12:35;0.40;;;0.40;;
21771;SDS011;11047;47.904;8.110;2024-02-26T05:15:02;2.83;;;1.10;;
21771;SDS011;11047;47.904;8.110;2024-02-26T05:17:29;0.88;;;0.38;;
21771;SDS011;11047;47.904;8.110;2024-02-26T05:19:56;1.02;;;0.60;;
21771;SDS011;11047;47.904;8.110;2024-02-26T05:22:23;1.15;;;0.52;;
21771;SDS011;11047;47.904;8.110;2024-02-26T05:24:50;0.90;;;0.80;;
21771;SDS011;11047;47.904;8.110;2024-02-26T05:27:21;0.90;;;0.80;;
21771;SDS011;11047;47.904;8.110;2024-02-26T05:29:52;1.08;;;0.70;;
21771;SDS011;11047;47.904;8.110;2024-02-26T05:32:19;2.33;;;1.48;;
21771;SDS011;11047;47.904;8.110;2024-02-26T05:34:46;0.50;;;0.38;;
21771;SDS011;11047;47.904;8.110;2024-02-26T05:37:13;0.93;;;0.75;;
21771;SDS011;11047;47.904;8.110;2024-02-26T05:39:40;1.13;;;0.88;;
21771;SDS011;11047;47.904;8.110;2024-02-26T05:42:07;0.77;;;0.40;;
21771;SDS011;11047;47.904;8.110;2024-02-26T05:44:34;0.40;;;0.40;;
21771;SDS011;11047;47.904;8.110;2024-02-26T05:47:03;1.20;;;1.08;;
21771;SDS011;11047;47.904;8.110;2024-02-26T05:49:30;0.35;;;0.30;;
21771;SDS011;11047;47.904;8.110;2024-02-26T05:51:58;0.30;;;0.30;;
21771;SDS011;11047;47.904;8.110;2024-02-26T05:54:25;0.30;;;0.30;;
21771;SDS011;11047;47.904;8.110;2024-02-26T05:56:52;0.65;;;0.40;;
21771;SDS011;11047;47.904;8.110;2024-02-26T05:59:19;0.65;;;0.60;;
21771;SDS011;11047;47.904;8.110;2024-02-26T06:01:47;2.65;;;0.50;;
21771;SDS011;11047;47.904;8.110;2024-02-26T06:11:58;0.35;;;0.30;;
21771;SDS011;11047;47.904;8.110;2024-02-26T06:15:26;0.32;;;0.32;;
21771;SDS011;11047;47.904;8.110;2024-02-26T06:18:41;1.00;;;0.37;;
21771;SDS011;11047;47.904;8.110;2024-02-26T06:22:20;1.15;;;0.40;;
21771;SDS011;11047;47.904;8.110;2024-02-26T07:49:21;0.30;;;0.30;;
21771;SDS011;11047;47.904;8.110;2024-02-26T07:51:54;0.30;;;0.30;;
21771;SDS011;11047;47.904;8.110;2024-02-26T07:54:34;0.35;;;0.35;;
21771;SDS011;11047;47.904;8.110;2024-02-26T07:57:06;1.17;;;0.75;;
21771;SDS011;11047;47.904;8.110;2024-02-26T07:59:34;0.40;;;0.40;;
21771;SDS011;11047;47.904;8.110;2024-02-26T08:02:06;0.60;;;0.60;;
21771;SDS011;11047;47.904;8.110;2024-02-26T08:04:39;0.80;;;0.60;;
21771;SDS011;11047;47.904;8.110;2024-02-26T08:07:28;0.85;;;0.70;;
21771;SDS011;11047;47.904;8.110;2024-02-26T08:10:14;0.50;;;0.47;;
21771;SDS011;11047;47.904;8.110;2024-02-26T08:13:11;1.25;;;0.80;;
21771;SDS011;11047;47.904;8.110;2024-02-26T08:16:17;0.65;;;0.65;;
21771;SDS011;11047;47.904;8.110;2024-02-26T08:22:14;0.60;;;0.60;;
21771;SDS011;11047;47.904;8.110;2024-02-26T08:25:04;1.20;;;0.85;;
21771;SDS011;11047;47.904;8.110;2024-02-26T08:28:07;0.80;;;0.70;;
21771;SDS011;11047;47.904;8.110;2024-02-26T08:31:17;1.85;;;0.80;;
21771;SDS011;11047;47.904;8.110;2024-02-26T08:34:16;1.38;;;0.60;;
21771;SDS011;11047;47.904;8.110;2024-02-26T09:50:19;0.10;;;0.10;;
21771;SDS011;11047;47.904;8.110;2024-02-26T10:59:39;0.85;;;0.85;;
21771;SDS011;11047;47.904;8.110;2024-02-26T11:02:49;0.60;;;0.60;;
21771;SDS011;11047;47.904;8.110;2024-02-26T11:05:54;1.05;;;0.70;;
21771;SDS011;11047;47.904;8.110;2024-02-26T11:22:10;0.75;;;0.70;;
21771;SDS011;11047;47.904;8.110;2024-02-26T11:25:30;0.40;;;0.40;;
21771;SDS011;11047;47.904;8.110;2024-02-26T11:28:29;1.48;;;0.65;;
21771;SDS011;11047;47.904;8.110;2024-02-26T12:05:17;0.35;;;0.32;;
21771;SDS011;11047;47.904;8.110;2024-02-26T12:07:49;0.88;;;0.40;;
21771;SDS011;11047;47.904;8.110;2024-02-26T12:10:21;1.98;;;0.40;;
21771;SDS011;11047;47.904;8.110;2024-02-26T12:15:38;0.30;;;0.30;;
21771;SDS011;11047;47.904;8.110;2024-02-26T12:18:07;0.57;;;0.32;;
21771;SDS011;11047;47.904;8.110;2024-02-26T12:20:37;0.50;;;0.30;;
21771;SDS011;11047;47.904;8.110;2024-02-26T12:23:06;0.38;;;0.30;;
21771;SDS011;11047;47.904;8.110;2024-02-26T12:25:33;1.02;;;0.50;;
21771;SDS011;11047;47.904;8.110;2024-02-26T12:28:00;0.25;;;0.25;;
21771;SDS011;11047;47.904;8.110;2024-02-26T12:30:28;1.45;;;0.30;;
21771;SDS011;11047;47.904;8.110;2024-02-26T12:32:57;0.40;;;0.40;;
21771;SDS011;11047;47.904;8.110;2024-02-26T12:35:28;0.60;;;0.30;;
21771;SDS011;11047;47.904;8.110;2024-02-26T12:37:59;1.73;;;0.50;;
21771;SDS011;11047;47.904;8.110;2024-02-26T12:43:37;0.47;;;0.40;;
21771;SDS011;11047;47.904;8.110;2024-02-26T12:46:10;1.42;;;0.47;;
21771;SDS011;11047;47.904;8.110;2024-02-26T12:51:56;0.40;;;0.40;;
21771;SDS011;11047;47.904;8.110;2024-02-26T12:54:45;1.00;;;0.40;;
21771;SDS011;11047;47.904;8.110;2024-02-26T12:57:39;1.15;;;0.75;;
21771;SDS011;11047;47.904;8.110;2024-02-26T13:00:15;0.68;;;0.50;;
21771;SDS011;11047;47.904;8.110;2024-02-26T13:03:23;0.77;;;0.50;;
21771;SDS011;11047;47.904;8.110;2024-02-26T13:06:23;0.70;;;0.40;;
21771;SDS011;11047;47.904;8.110;2024-02-26T13:09:07;0.57;;;0.40;;
21771;SDS011;11047;47.904;8.110;2024-02-26T13:11:35;0.85;;;0.85;;
21771;SDS011;11047;47.904;8.110;2024-02-26T13:14:05;0.63;;;0.55;;
21771;SDS011;11047;47.904;8.110;2024-02-26T13:16:32;0.40;;;0.40;;
21771;SDS011;11047;47.904;8.110;2024-02-26T13:19:07;0.50;;;0.50;;
21771;SDS011;11047;47.904;8.110;2024-02-26T13:21:35;0.55;;;0.40;;
21771;SDS011;11047;47.904;8.110;2024-02-26T13:24:02;0.70;;;0.50;;
21771;SDS011;11047;47.904;8.110;2024-02-26T13:26:31;0.57;;;0.40;;
21771;SDS011;11047;47.904;8.110;2024-02-26T13:29:01;0.60;;;0.60;;
21771;SDS011;11047;47.904;8.110;2024-02-26T13:31:28;1.00;;;0.90;;
21771;SDS011;11047;47.904;8.110;2024-02-26T13:33:55;0.63;;;0.40;;
21771;SDS011;11047;47.904;8.110;2024-02-26T13:36:22;2.20;;;0.45;;
21771;SDS011;11047;47.904;8.110;2024-02-26T13:38:51;0.50;;;0.40;;
21771;SDS011;11047;47.904;8.110;2024-02-26T13:41:19;0.50;;;0.50;;
21771;SDS011;11047;47.904;8.110;2024-02-26T13:43:48;1.05;;;0.57;;
21771;SDS011;11047;47.904;8.110;2024-02-26T13:46:17;1.80;;;0.70;;
21771;SDS011;11047;47.904;8.110;2024-02-26T13:52:01;1.00;;;0.77;;
21771;SDS011;11047;47.904;8.110;2024-02-26T13:57:54;1.40;;;1.30;;
21771;SDS011;11047;47.904;8.110;2024-02-26T14:03:55;2.75;;;0.57;;
21771;SDS011;11047;47.904;8.110;2024-02-26T14:06:23;2.45;;;0.60;;
21771;SDS011;11047;47.904;8.110;2024-02-26T14:08:55;1.02;;;0.73;;
21771;SDS011;11047;47.904;8.110;2024-02-26T14:11:59;4.50;;;0.60;;
21771;SDS011;11047;47.904;8.110;2024-02-26T14:14:29;0.60;;;0.60;;
21771;SDS011;11047;47.904;8.110;2024-02-26T14:17:00;0.95;;;0.43;;
21771;SDS011;11047;47.904;8.110;2024-02-26T14:22:08;0.40;;;0.40;;
21771;SDS011;11047;47.904;8.110;2024-02-26T14:24:37;2.75;;;0.50;;
21771;SDS011;11047;47.904;8.110;2024-02-26T14:27:13;0.38;;;0.30;;
21771;SDS011;11047;47.904;8.110;2024-02-26T14:29:45;0.93;;;0.55;;
21771;SDS011;11047;47.904;8.110;2024-02-26T14:32:14;0.85;;;0.73;;
21771;SDS011;11047;47.904;8.110;2024-02-26T14:34:46;0.50;;;0.50;;
21771;SDS011;11047;47.904;8.110;2024-02-26T14:37:18;0.43;;;0.43;;
21771;SDS011;11047;47.904;8.110;2024-02-26T14:39:45;0.77;;;0.70;;
21771;SDS011;11047;47.904;8.110;2024-02-26T14:42:17;1.10;;;0.93;;
21771;SDS011;11047;47.904;8.110;2024-02-26T14:44:45;1.60;;;0.40;;
21771;SDS011;11047;47.904;8.110;2024-02-26T14:47:13;1.63;;;0.50;;
21771;SDS011;11047;47.904;8.110;2024-02-26T14:49:40;0.95;;;0.60;;
21771;SDS011;11047;47.904;8.110;2024-02-26T14:55:06;1.00;;;0.50;;
21771;SDS011;11047;47.904;8.110;2024-02-26T14:57:42;0.88;;;0.88;;
21771;SDS011;11047;47.904;8.110;2024-02-26T15:00:15;1.50;;;1.40;;
21771;SDS011;11047;47.904;8.110;2024-02-26T15:02:46;1.77;;;0.63;;
21771;SDS011;11047;47.904;8.110;2024-02-26T15:05:14;1.52;;;0.85;;
21771;SDS011;11047;47.904;8.110;2024-02-26T15:07:46;1.85;;;0.77;;
21771;SDS011;11047;47.904;8.110;2024-02-26T15:10:17;2.08;;;1.40;;
21771;SDS011;11047;47.904;8.110;2024-02-26T15:12:53;1.08;;;0.70;;
21771;SDS011;11047;47.904;8.110;2024-02-26T15:15:22;2.90;;;0.50;;
21771;SDS011;11047;47.904;8.110;2024-02-26T15:17:55;1.23;;;0.50;;
21771;SDS011;11047;47.904;8.110;2024-02-26T15:20:24;3.17;;;0.82;;
21771;SDS011;11047;47.904;8.110;2024-02-26T15:22:55;3.22;;;1.70;;
21771;SDS011;11047;47.904;8.110;2024-02-26T15:25:27;1.10;;;1.00;;
21771;SDS011;11047;47.904;8.110;2024-02-26T15:28:13;0.77;;;0.70;;
21771;SDS011;11047;47.904;8.110;2024-02-26T15:30:42;0.80;;;0.70;;
21771;SDS011;11047;47.904;8.110;2024-02-26T15:33:41;3.60;;;0.60;;
21771;SDS011;11047;47.904;8.110;2024-02-26T15:37:03;0.60;;;0.60;;
21771;SDS011;11047;47.904;8.110;2024-02-26T15:39:40;0.85;;;0.68;;
21771;SDS011;11047;47.904;8.110;2024-02-26T15:42:07;0.68;;;0.50;;
21771;SDS011;11047;47.904;8.110;2024-02-26T15:44:37;1.02;;;0.55;;
21771;SDS011;11047;47.904;8.110;2024-02-26T15:47:05;0.82;;;0.50;;
21771;SDS011;11047;47.904;8.110;2024-02-26T15:49:36;1.98;;;0.50;;
21771;SDS011;11047;47.904;8.110;2024-02-26T15:52:25;1.40;;;1.30;;
21771;SDS011;11047;47.904;8.110;2024-02-26T15:55:05;1.52;;;0.77;;
21771;SDS011;11047;47.904;8.110;2024-02-26T15:57:41;0.50;;;0.50;;
21771;SDS011;11047;47.904;8.110;2024-02-26T16:00:08;2.88;;;2.47;;
21771;SDS011;11047;47.904;8.110;2024-02-26T16:02:37;0.80;;;0.80;;
21771;SDS011;11047;47.904;8.110;2024-02-26T16:05:08;1.95;;;0.77;;
21771;SDS011;11047;47.904;8.110;2024-02-26T16:07:38;1.38;;;0.80;;
21771;SDS011;11047;47.904;8.110;2024-02-26T16:10:11;0.93;;;0.60;;
21771;SDS011;11047;47.904;8.110;2024-02-26T16:12:40;1.88;;;0.60;;
21771;SDS011;11047;47.904;8.110;2024-02-26T16:15:13;4.43;;;2.50;;
21771;SDS011;11047;47.904;8.110;2024-02-26T16:17:44;0.90;;;0.57;;
21771;SDS011;11047;47.904;8.110;2024-02-26T16:20:43;0.85;;;0.55;;
21771;SDS011;11047;47.904;8.110;2024-02-26T16:23:40;0.80;;;0.45;;
21771;SDS011;11047;47.904;8.110;2024-02-26T16:26:08;0.90;;;0.50;;
21771;SDS011;11047;47.904;8.110;2024-02-26T16:28:38;2.70;;;0.77;;
21771;SDS011;11047;47.904;8.110;2024-02-26T16:31:08;0.70;;;0.70;;
21771;SDS011;11047;47.904;8.110;2024-02-26T16:33:36;1.80;;;1.02;;
21771;SDS011;11047;47.904;8.110;2024-02-26T16:36:19;1.90;;;1.07;;
21771;SDS011;11047;47.904;8.110;2024-02-26T16:38:48;1.13;;;0.88;;
21771;SDS011;11047;47.904;8.110;2024-02-26T16:41:17;1.63;;;0.80;;
21771;SDS011;11047;47.904;8.110;2024-02-26T16:43:51;2.55;;;1.30;;
21771;SDS011;11047;47.904;8.110;2024-02-26T16:46:18;1.48;;;0.70;;
21771;SDS011;11047;47.904;8.110;2024-02-26T16:48:50;4.22;;;0.88;;
21771;SDS011;11047;47.904;8.110;2024-02-26T16:51:22;1.17;;;0.95;;
21771;SDS011;11047;47.904;8.110;2024-02-26T16:56:40;1.40;;;0.90;;
21771;SDS011;11047;47.904;8.110;2024-02-26T16:59:14;0.98;;;0.80;;
21771;SDS011;11047;47.904;8.110;2024-02-26T17:01:44;1.00;;;0.80;;
21771;SDS011;11047;47.904;8.110;2024-02-26T17:04:12;10.50;;;1.45;;
21771;SDS011;11047;47.904;8.110;2024-02-26T17:06:41;3.47;;;1.70;;
21771;SDS011;11047;47.904;8.110;2024-02-26T17:09:08;1.10;;;0.73;;
21771;SDS011;11047;47.904;8.110;2024-02-26T17:11:37;0.80;;;0.80;;
21771;SDS011;11047;47.904;8.110;2024-02-26T17:14:06;1.73;;;0.85;;
21771;SDS011;11047;47.904;8.110;2024-02-26T17:16:37;3.45;;;1.10;;
21771;SDS011;11047;47.904;8.110;2024-02-26T17:19:05;1.20;;;1.00;;
21771;SDS011;11047;47.904;8.110;2024-02-26T17:21:36;2.47;;;1.00;;
21771;SDS011;11047;47.904;8.110;2024-02-26T17:24:03;2.85;;;1.00;;
21771;SDS011;11047;47.904;8.110;2024-02-26T17:26:31;2.63;;;0.95;;
21771;SDS011;11047;47.904;8.110;2024-02-26T17:29:03;1.67;;;0.90;;
21771;SDS011;11047;47.904;8.110;2024-02-26T17:31:31;2.63;;;1.00;;
21771;SDS011;11047;47.904;8.110;2024-02-26T17:33:59;2.08;;;0.90;;
21771;SDS011;11047;47.904;8.110;2024-02-26T17:36:33;1.02;;;0.85;;
21771;SDS011;11047;47.904;8.110;2024-02-26T17:39:01;1.58;;;1.00;;
21771;SDS011;11047;47.904;8.110;2024-02-26T17:41:29;3.10;;;1.00;;
21771;SDS011;11047;47.904;8.110;2024-02-26T17:43:56;1.70;;;1.30;;
21771;SDS011;11047;47.904;8.110;2024-02-26T17:46:24;1.48;;;1.38;;
21771;SDS011;11047;47.904;8.110;2024-02-26T17:48:54;7.20;;;2.30;;
21771;SDS011;11047;47.904;8.110;2024-02-26T17:51:21;2.13;;;1.92;;
21771;SDS011;11047;47.904;8.110;2024-02-26T17:53:48;2.33;;;1.65;;
21771;SDS011;11047;47.904;8.110;2024-02-26T17:56:15;2.30;;;1.60;;
21771;SDS011;11047;47.904;8.110;2024-02-26T17:58:42;3.13;;;1.73;;
21771;SDS011;11047;47.904;8.110;2024-02-26T18:03:40;2.67;;;1.67;;
21771;SDS011;11047;47.904;8.110;2024-02-26T18:06:07;1.58;;;1.48;;
21771;SDS011;11047;47.904;8.110;2024-02-26T18:08:34;3.67;;;1.27;;
21771;SDS011;11047;47.904;8.110;2024-02-26T18:11:01;2.47;;;1.90;;
21771;SDS011;11047;47.904;8.110;2024-02-26T18:13:28;2.53;;;1.77;;
21771;SDS011;11047;47.904;8.110;2024-02-26T18:15:55;3.08;;;2.08;;
21771;SDS011;11047;47.904;8.110;2024-02-26T18:18:23;1.83;;;1.48;;
21771;SDS011;11047;47.904;8.110;2024-02-26T18:20:51;3.47;;;2.63;;
21771;SDS011;11047;47.904;8.110;2024-02-26T18:23:18;5.65;;;2.63;;
21771;SDS011;11047;47.904;8.110;2024-02-26T18:25:45;6.88;;;4.03;;
21771;SDS011;11047;47.904;8.110;2024-02-26T18:28:12;7.25;;;3.72;;
21771;SDS011;11047;47.904;8.110;2024-02-26T18:30:39;2.70;;;2.33;;
21771;SDS011;11047;47.904;8.110;2024-02-26T18:33:09;6.85;;;3.03;;
21771;SDS011;11047;47.904;8.110;2024-02-26T18:35:36;3.75;;;3.17;;
21771;SDS011;11047;47.904;8.110;2024-02-26T18:38:04;7.03;;;4.07;;
21771;SDS011;11047;47.904;8.110;2024-02-26T18:40:31;6.70;;;4.03;;
21771;SDS011;11047;47.904;8.110;2024-02-26T18:42:58;3.72;;;2.22;;
21771;SDS011;11047;47.904;8.110;2024-02-26T18:45:28;2.97;;;1.90;;
21771;SDS011;11047;47.904;8.110;2024-02-26T18:48:15;3.13;;;2.22;;
21771;SDS011;11047;47.904;8.110;2024-02-26T18:51:35;3.15;;;2.30;;
21771;SDS011;11047;47.904;8.110;2024-02-26T18:54:09;2.95;;;2.08;;
21771;SDS011;11047;47.904;8.110;2024-02-26T18:56:38;2.35;;;1.95;;
21771;SDS011;11047;47.904;8.110;2024-02-26T18:59:05;2.17;;;1.88;;
21771;SDS011;11047;47.904;8.110;2024-02-26T19:01:34;2.80;;;1.85;;
21771;SDS011;11047;47.904;8.110;2024-02-26T19:04:04;1.90;;;1.70;;
21771;SDS011;11047;47.904;8.110;2024-02-26T19:06:31;1.90;;;1.50;;
21771;SDS011;11047;47.904;8.110;2024-02-26T19:09:00;2.30;;;1.52;;
21771;SDS011;11047;47.904;8.110;2024-02-26T19:11:29;3.72;;;2.17;;
21771;SDS011;11047;47.904;8.110;2024-02-26T19:13:56;2.42;;;1.60;;
21771;SDS011;11047;47.904;8.110;2024-02-26T19:16:24;2.03;;;1.30;;
21771;SDS011;11047;47.904;8.110;2024-02-26T19:18:52;3.85;;;2.80;;
21771;SDS011;11047;47.904;8.110;2024-02-26T19:21:19;3.30;;;1.15;;
21771;SDS011;11047;47.904;8.110;2024-02-26T19:23:46;4.28;;;2.03;;
21771;SDS011;11047;47.904;8.110;2024-02-26T19:26:13;8.85;;;3.78;;
21771;SDS011;11047;47.904;8.110;2024-02-26T19:28:41;3.72;;;1.90;;
21771;SDS011;11047;47.904;8.110;2024-02-26T19:31:10;3.88;;;2.88;;
21771;SDS011;11047;47.904;8.110;2024-02-26T19:33:37;3.13;;;2.20;;
21771;SDS011;11047;47.904;8.110;2024-02-26T19:36:04;4.13;;;2.90;;
21771;SDS011;11047;47.904;8.110;2024-02-26T19:38:31;6.13;;;2.65;;
21771;SDS011;11047;47.904;8.110;2024-02-26T19:40:59;4.38;;;2.72;;
21771;SDS011;11047;47.904;8.110;2024-02-26T19:43:26;2.70;;;2.20;;
21771;SDS011;11047;47.904;8.110;2024-02-26T19:45:54;3.88;;;2.95;;
21771;SDS011;11047;47.904;8.110;2024-02-26T19:48:21;4.22;;;2.28;;
21771;SDS011;11047;47.904;8.110;2024-02-26T19:50:48;4.03;;;2.72;;
21771;SDS011;11047;47.904;8.110;2024-02-26T19:53:15;2.95;;;2.20;;
21771;SDS011;11047;47.904;8.110;2024-02-26T19:55:42;3.05;;;2.00;;
21771;SDS011;11047;47.904;8.110;2024-02-26T19:58:10;3.72;;;2.13;;
21771;SDS011;11047;47.904;8.110;2024-02-26T20:00:37;1.90;;;1.70;;
21771;SDS011;11047;47.904;8.110;2024-02-26T20:03:05;3.05;;;1.98;;
21771;SDS011;11047;47.904;8.110;2024-02-26T20:05:32;2.50;;;1.40;;
21771;SDS011;11047;47.904;8.110;2024-02-26T20:08:01;3.88;;;1.55;;
21771;SDS011;11047;47.904;8.110;2024-02-26T20:10:29;2.47;;;1.45;;
21771;SDS011;11047;47.904;8.110;2024-02-26T20:12:56;3.03;;;1.48;;
21771;SDS011;11047;47.904;8.110;2024-02-26T20:15:25;1.95;;;1.20;;
21771;SDS011;11047;47.904;8.110;2024-02-26T20:17:52;1.88;;;1.38;;
21771;SDS011;11047;47.904;8.110;2024-02-26T20:20:20;2.85;;;1.30;;
21771;SDS011;11047;47.904;8.110;2024-02-26T20:22:51;2.97;;;1.40;;
21771;SDS011;11047;47.904;8.110;2024-02-26T20:25:18;1.70;;;1.40;;
21771;SDS011;11047;47.904;8.110;2024-02-26T20:27:45;2.20;;;1.50;;
21771;SDS011;11047;47.904;8.110;2024-02-26T20:30:12;2.30;;;1.50;;